createdAt,value
2018-06-27T00:04:37.765Z,92.10
2018-06-27T00:09:42.572Z,92.60
2018-06-27T00:14:47.712Z,92.90
2018-06-27T00:19:52.472Z,93.30
2018-06-27T00:24:57.440Z,93.40
2018-06-27T00:30:02.260Z,93.60
2018-06-27T00:35:07.000Z,93.70
2018-06-27T00:40:11.770Z,94.00
2018-06-27T00:45:16.559Z,94.50
2018-06-27T00:50:21.838Z,94.70
2018-06-27T00:55:26.451Z,95.10
2018-06-27T01:00:31.501Z,95.40
2018-06-27T01:05:36.731Z,95.90
2018-06-27T01:10:41.627Z,96.00
2018-06-27T01:15:46.443Z,96.20
2018-06-27T01:20:51.115Z,96.30
2018-06-27T01:25:55.812Z,96.60
2018-06-27T01:31:00.455Z,96.80
2018-06-27T01:36:05.526Z,97.00
2018-06-27T01:41:10.303Z,97.20
2018-06-27T01:46:15.316Z,97.60
2018-06-27T01:51:20.180Z,97.70
2018-06-27T01:56:25.228Z,97.80
2018-06-27T02:01:30.665Z,97.90
2018-06-27T02:06:35.848Z,97.90
2018-06-27T02:11:41.584Z,97.90
2018-06-27T02:21:50.960Z,98.30
2018-06-27T02:26:55.686Z,98.40
2018-06-27T02:32:00.669Z,98.50
2018-06-27T02:37:05.389Z,99.10
2018-06-27T02:42:10.352Z,99.00
2018-06-27T02:47:15.079Z,98.80
2018-06-27T02:57:23.932Z,98.40
2018-06-27T03:02:28.861Z,98.40
2018-06-27T03:07:33.561Z,98.40
2018-06-27T03:12:38.543Z,98.40
2018-06-27T03:17:46.398Z,98.00
2018-06-27T03:22:51.233Z,97.80
2018-06-27T03:27:55.952Z,97.80
2018-06-27T03:33:00.685Z,98.00
2018-06-27T03:38:06.578Z,98.10
2018-06-27T03:43:11.544Z,98.10
2018-06-27T03:48:16.475Z,97.60
2018-06-27T03:53:21.226Z,97.30
2018-06-27T03:58:26.167Z,96.80
2018-06-27T04:03:31.094Z,96.30
2018-06-27T04:08:35.973Z,95.90
2018-06-27T04:13:40.832Z,95.20
2018-06-27T04:18:46.060Z,95.10
2018-06-27T04:23:50.971Z,94.30
2018-06-27T04:28:55.903Z,93.70
2018-06-27T04:34:00.971Z,93.20
2018-06-27T04:39:08.264Z,92.70
2018-06-27T04:44:13.115Z,92.10
2018-06-27T04:49:17.881Z,92.30
2018-06-27T04:54:22.701Z,92.60
2018-06-27T04:59:27.437Z,92.20
2018-06-27T05:04:32.282Z,91.90
2018-06-27T05:09:36.911Z,92.10
2018-06-27T05:14:41.580Z,91.50
2018-06-27T05:19:46.284Z,91.30
2018-06-27T05:24:51.367Z,92.00
2018-06-27T05:29:56.290Z,91.40
2018-06-27T05:35:01.046Z,90.80
2018-06-27T05:40:05.883Z,90.80
2018-06-27T05:45:10.720Z,90.50
2018-06-27T05:50:15.487Z,90.00
2018-06-27T05:55:20.329Z,88.90
2018-06-27T06:00:25.346Z,88.60
2018-06-27T06:05:30.023Z,87.70
2018-06-27T06:10:34.623Z,87.80
2018-06-27T06:15:39.443Z,87.20
2018-06-27T06:20:44.353Z,87.40
2018-06-27T06:25:49.046Z,86.80
2018-06-27T06:30:53.820Z,86.50
2018-06-27T06:35:58.689Z,85.80
2018-06-27T06:41:03.617Z,85.80
2018-06-27T06:46:08.417Z,85.80
2018-06-27T06:51:13.171Z,85.40
2018-06-27T06:56:18.660Z,85.50
2018-06-27T07:01:23.484Z,85.50
2018-06-27T07:06:28.233Z,85.80
2018-06-27T07:11:32.991Z,84.70
2018-06-27T07:16:38.034Z,82.80
2018-06-27T07:21:42.842Z,82.90
2018-06-27T07:26:47.725Z,83.00
2018-06-27T07:31:52.646Z,82.70
2018-06-27T07:36:57.586Z,80.00
2018-06-27T07:42:02.712Z,80.90
2018-06-27T07:47:07.554Z,81.60
2018-06-27T07:52:12.755Z,80.50
2018-06-27T07:57:17.393Z,81.70
2018-06-27T08:02:22.132Z,79.80
2018-06-27T08:07:33.441Z,78.60
2018-06-27T08:12:38.962Z,79.20
2018-06-27T08:17:43.733Z,79.10
2018-06-27T08:22:48.493Z,79.10
2018-06-27T08:27:53.058Z,78.70
2018-06-27T08:34:04.707Z,79.50
2018-06-27T08:39:10.590Z,78.00
2018-06-27T08:44:16.645Z,77.90
2018-06-27T08:49:21.381Z,77.10
2018-06-27T08:54:26.225Z,75.10
2018-06-27T08:59:31.182Z,75.90
2018-06-27T09:04:35.786Z,76.40
2018-06-27T09:09:40.779Z,74.90
2018-06-27T09:14:46.291Z,75.00
2018-06-27T09:19:51.173Z,74.70
2018-06-27T09:24:56.116Z,73.40
2018-06-27T09:30:01.433Z,73.30
2018-06-27T09:35:06.440Z,71.70
2018-06-27T09:40:11.218Z,70.90
2018-06-27T09:45:15.986Z,70.50
2018-06-27T09:50:20.877Z,68.70
2018-06-27T09:55:25.688Z,70.30
2018-06-27T10:00:35.594Z,70.20
2018-06-27T10:05:40.389Z,69.70
2018-06-27T10:10:45.089Z,66.90
2018-06-27T10:15:49.987Z,66.90
2018-06-27T10:20:54.681Z,67.10
2018-06-27T10:25:59.671Z,67.00
2018-06-27T10:31:04.375Z,66.10
2018-06-27T10:36:09.118Z,65.80
2018-06-27T10:41:13.968Z,66.40
2018-06-27T10:46:18.924Z,66.20
2018-06-27T10:51:23.774Z,65.40
2018-06-27T10:56:28.835Z,64.60
2018-06-27T11:01:33.678Z,63.70
2018-06-27T11:06:38.327Z,62.50
2018-06-27T11:11:43.151Z,63.70
2018-06-27T11:16:48.709Z,61.10
2018-06-27T11:21:54.055Z,62.80
2018-06-27T11:26:58.961Z,61.90
2018-06-27T11:32:03.878Z,62.10
2018-06-27T11:37:09.003Z,61.40
2018-06-27T11:42:14.018Z,61.30
2018-06-27T11:47:18.777Z,60.90
2018-06-27T11:52:23.498Z,61.00
2018-06-27T11:57:28.388Z,62.00
2018-06-27T12:02:33.078Z,62.50
2018-06-27T12:07:37.870Z,61.90
2018-06-27T12:12:42.565Z,60.90
2018-06-27T12:17:47.299Z,60.00
2018-06-27T12:22:51.991Z,59.70
2018-06-27T12:33:00.814Z,56.80
2018-06-27T12:38:05.596Z,53.20
2018-06-27T12:43:10.383Z,53.50
2018-06-27T12:48:15.106Z,55.20
2018-06-27T12:53:20.122Z,58.00
2018-06-27T12:58:25.056Z,59.50
2018-06-27T13:03:29.918Z,60.90
2018-06-27T13:08:34.746Z,63.00
2018-06-27T13:13:39.557Z,63.90
2018-06-27T13:18:44.325Z,64.80
2018-06-27T13:23:49.270Z,65.50
2018-06-27T13:28:54.107Z,65.30
2018-06-27T13:33:58.808Z,65.70
2018-06-27T13:39:04.033Z,66.80
2018-06-27T13:44:08.968Z,67.00
2018-06-27T13:49:13.998Z,67.90
2018-06-27T13:54:18.940Z,68.90
2018-06-27T13:59:24.010Z,68.80
2018-06-27T14:04:28.951Z,67.50
2018-06-27T14:09:34.121Z,67.30
2018-06-27T14:14:39.107Z,67.50
2018-06-27T14:19:44.050Z,66.30
2018-06-27T14:24:49.009Z,64.80
2018-06-27T14:29:54.097Z,60.20
2018-06-27T14:34:59.019Z,59.40
2018-06-27T14:40:04.025Z,57.90
2018-06-27T14:45:08.999Z,58.90
2018-06-27T14:50:14.265Z,61.00
2018-06-27T14:55:19.985Z,62.10
2018-06-27T15:00:25.136Z,63.30
2018-06-27T15:05:30.284Z,61.40
2018-06-27T15:10:35.121Z,59.50
2018-06-27T15:15:40.287Z,58.30
2018-06-27T15:20:45.280Z,55.20
2018-06-27T15:25:50.292Z,55.60
2018-06-27T15:30:55.214Z,56.40
2018-06-27T15:36:00.343Z,52.30
2018-06-27T15:41:07.928Z,51.70
2018-06-27T15:46:13.049Z,51.80
2018-06-27T15:51:18.167Z,51.40
2018-06-27T15:56:23.372Z,51.50
2018-06-27T16:01:28.532Z,51.40
2018-06-27T16:06:33.515Z,55.10
2018-06-27T16:11:39.130Z,59.40
2018-06-27T16:16:44.442Z,61.90
2018-06-27T16:21:49.844Z,63.00
2018-06-27T16:26:54.866Z,63.20
2018-06-27T16:31:59.753Z,62.40
2018-06-27T16:37:05.038Z,55.60
2018-06-27T16:42:10.097Z,53.00
2018-06-27T16:47:15.370Z,50.40
2018-06-27T16:52:20.332Z,50.20
2018-06-27T16:57:25.356Z,48.90
2018-06-27T17:02:30.212Z,48.80
2018-06-27T17:07:35.259Z,51.00
2018-06-27T17:12:41.271Z,52.20
2018-06-27T17:17:46.487Z,52.50
2018-06-27T17:22:51.248Z,55.30
2018-06-27T17:27:56.169Z,58.30
2018-06-27T17:33:01.143Z,60.40
2018-06-27T17:38:06.199Z,60.90
2018-06-27T17:43:11.035Z,61.60
2018-06-27T17:48:15.932Z,62.10
2018-06-27T17:53:20.996Z,62.60
2018-06-27T17:58:25.735Z,62.60
2018-06-27T18:03:30.577Z,62.50
2018-06-27T18:08:35.278Z,63.90
2018-06-27T18:13:40.750Z,65.30
2018-06-27T18:18:45.680Z,66.20
2018-06-27T18:23:50.641Z,66.60
2018-06-27T18:28:55.761Z,67.40
2018-06-27T18:34:00.478Z,67.40
2018-06-27T18:39:08.371Z,67.70
2018-06-27T18:44:13.247Z,67.90
2018-06-27T18:49:18.268Z,68.30
2018-06-27T18:54:23.342Z,68.70
2018-06-27T18:59:28.390Z,69.20
2018-06-27T19:04:33.331Z,69.70
2018-06-27T19:09:38.257Z,70.30
2018-06-27T19:14:43.206Z,70.30
2018-06-27T19:19:48.263Z,70.90
2018-06-27T19:24:53.086Z,71.50
2018-06-27T19:29:58.366Z,71.90
2018-06-27T19:35:03.250Z,72.20
2018-06-27T19:40:08.239Z,71.50
2018-06-27T19:45:13.130Z,71.30
2018-06-27T19:50:17.916Z,71.20
2018-06-27T19:55:23.020Z,71.60
2018-06-27T20:00:27.806Z,71.90
2018-06-27T20:05:32.741Z,72.30
2018-06-27T20:10:37.839Z,72.20
2018-06-27T20:15:42.604Z,71.90
2018-06-27T20:20:49.503Z,72.00
2018-06-27T20:25:54.646Z,72.20
2018-06-27T20:30:59.426Z,72.50
2018-06-27T20:36:04.244Z,72.70
2018-06-27T20:41:09.685Z,73.00
2018-06-27T20:46:15.277Z,73.30
2018-06-27T20:51:20.898Z,73.60
2018-06-27T20:56:26.275Z,74.10
2018-06-27T21:01:31.548Z,74.50
2018-06-27T21:06:36.932Z,74.90
2018-06-27T21:11:43.217Z,74.90
2018-06-27T21:16:48.757Z,75.20
2018-06-27T21:26:58.294Z,75.20
2018-06-27T21:32:03.697Z,75.50
2018-06-27T21:37:08.503Z,75.90
2018-06-27T21:42:14.991Z,76.10
2018-06-27T21:47:20.011Z,76.60
2018-06-27T21:52:25.345Z,77.00
2018-06-27T21:57:30.351Z,77.40
2018-06-27T22:02:35.329Z,77.50
2018-06-27T22:07:41.070Z,77.90
2018-06-27T22:12:46.006Z,78.30
2018-06-27T22:17:51.452Z,78.60
2018-06-27T22:22:56.646Z,78.90
2018-06-27T22:28:02.049Z,79.00
2018-06-27T22:33:07.670Z,79.20
2018-06-27T22:38:12.842Z,79.00
2018-06-27T22:43:18.167Z,79.20
2018-06-27T22:48:22.827Z,79.40
2018-06-27T22:53:27.777Z,79.40
2018-06-27T22:58:32.701Z,79.50
2018-06-27T23:03:37.292Z,79.40
2018-06-27T23:08:42.217Z,79.40
2018-06-27T23:13:47.135Z,79.30
2018-06-27T23:18:52.150Z,79.20
2018-06-27T23:23:56.910Z,79.20
2018-06-27T23:29:01.516Z,79.20
2018-06-27T23:34:06.188Z,79.40
2018-06-27T23:39:12.887Z,79.70
2018-06-27T23:44:17.687Z,79.80
